createdAt,value
2019-03-27T00:01:10.656Z,65.92
2019-03-27T00:03:37.334Z,65.85
2019-03-27T00:06:04.378Z,65.93
2019-03-27T00:08:31.090Z,65.92
2019-03-27T00:10:57.694Z,65.35
2019-03-27T00:13:24.315Z,65.67
2019-03-27T00:15:50.867Z,66.62
2019-03-27T00:18:17.565Z,65.50
2019-03-27T00:20:44.149Z,65.78
2019-03-27T00:23:10.754Z,65.89
2019-03-27T00:25:39.722Z,66.13
2019-03-27T00:28:06.617Z,65.78
2019-03-27T00:30:33.300Z,66.35
2019-03-27T00:32:59.944Z,65.92
2019-03-27T00:35:26.536Z,66.63
2019-03-27T00:37:54.415Z,66.79
2019-03-27T00:40:21.085Z,66.55
2019-03-27T00:42:47.692Z,67.11
2019-03-27T00:45:25.933Z,66.56
2019-03-27T00:47:43.463Z,66.75
2019-03-27T00:50:10.688Z,66.81
2019-03-27T00:52:38.310Z,67.01
2019-03-27T00:55:08.311Z,66.80
2019-03-27T00:57:35.257Z,67.21
2019-03-27T01:00:07.574Z,66.98
2019-03-27T01:02:34.253Z,66.51
2019-03-27T01:05:00.839Z,66.63
2019-03-27T01:07:27.433Z,66.11
2019-03-27T01:09:54.132Z,65.68
2019-03-27T01:12:20.892Z,65.85
2019-03-27T01:14:47.475Z,66.68
2019-03-27T01:17:14.144Z,66.13
2019-03-27T01:19:40.964Z,66.78
2019-03-27T01:22:07.600Z,66.30
2019-03-27T01:24:34.458Z,66.51
2019-03-27T01:27:01.442Z,65.67
2019-03-27T01:29:28.105Z,66.10
2019-03-27T01:31:54.657Z,67.17
2019-03-27T01:34:21.433Z,67.16
2019-03-27T01:36:48.097Z,67.20
2019-03-27T01:39:14.689Z,67.09
2019-03-27T01:41:41.394Z,67.10
2019-03-27T01:44:08.119Z,67.55
2019-03-27T01:46:34.780Z,66.91
2019-03-27T01:49:01.521Z,67.62
2019-03-27T01:51:28.068Z,67.66
2019-03-27T01:53:54.690Z,67.08
2019-03-27T01:56:21.265Z,67.56
2019-03-27T01:58:47.941Z,67.60
2019-03-27T02:01:14.708Z,68.16
2019-03-27T02:03:41.341Z,67.56
2019-03-27T02:06:08.365Z,67.58
2019-03-27T02:08:34.989Z,67.95
2019-03-27T02:11:01.736Z,67.36
2019-03-27T02:13:28.521Z,67.52
2019-03-27T02:16:06.103Z,67.35
2019-03-27T02:18:26.423Z,67.52
2019-03-27T02:20:52.975Z,67.34
2019-03-27T02:23:19.540Z,67.79
2019-03-27T02:25:46.171Z,68.13
2019-03-27T02:28:12.747Z,67.51
2019-03-27T02:30:39.563Z,67.83
2019-03-27T02:33:06.388Z,68.60
2019-03-27T02:35:33.296Z,68.11
2019-03-27T02:37:59.959Z,68.75
2019-03-27T02:40:27.860Z,68.60
2019-03-27T02:42:54.517Z,68.45
2019-03-27T02:45:21.213Z,67.93
2019-03-27T02:47:47.875Z,68.22
2019-03-27T02:50:14.539Z,68.08
2019-03-27T02:52:41.090Z,68.01
2019-03-27T02:55:08.794Z,68.28
2019-03-27T02:57:35.519Z,68.32
2019-03-27T03:00:09.010Z,68.71
2019-03-27T03:02:35.605Z,68.91
2019-03-27T03:05:06.600Z,68.48
2019-03-27T03:07:33.682Z,68.52
2019-03-27T03:10:00.629Z,68.25
2019-03-27T03:12:27.183Z,68.70
2019-03-27T03:14:54.079Z,68.77
2019-03-27T03:17:20.646Z,68.52
2019-03-27T03:19:47.217Z,68.58
2019-03-27T03:22:13.829Z,68.50
2019-03-27T03:24:40.575Z,69.20
2019-03-27T03:27:07.214Z,68.71
2019-03-27T03:29:33.950Z,69.05
2019-03-27T03:32:00.697Z,68.96
2019-03-27T03:34:27.261Z,68.71
2019-03-27T03:36:53.867Z,69.48
2019-03-27T03:39:20.765Z,68.52
2019-03-27T03:41:47.391Z,68.36
2019-03-27T03:44:14.011Z,68.41
2019-03-27T03:46:40.639Z,69.13
2019-03-27T03:49:07.254Z,68.86
2019-03-27T03:51:34.753Z,69.46
2019-03-27T03:54:02.184Z,69.50
2019-03-27T03:56:33.957Z,69.10
2019-03-27T03:59:01.538Z,69.44
2019-03-27T04:01:29.101Z,69.42
2019-03-27T04:03:56.430Z,69.18
2019-03-27T04:06:24.045Z,69.08
2019-03-27T04:08:50.758Z,69.30
2019-03-27T04:11:17.523Z,69.72
2019-03-27T04:13:44.081Z,69.30
2019-03-27T04:16:10.725Z,68.75
2019-03-27T04:18:37.287Z,68.67
2019-03-27T04:21:03.940Z,69.50
2019-03-27T04:23:30.706Z,68.78
2019-03-27T04:26:09.874Z,69.22
2019-03-27T04:28:25.987Z,69.11
2019-03-27T04:30:52.536Z,69.18
2019-03-27T04:33:19.196Z,68.65
2019-03-27T04:35:45.788Z,68.94
2019-03-27T04:38:12.364Z,68.87
2019-03-27T04:40:38.957Z,68.85
2019-03-27T04:43:05.585Z,68.92
2019-03-27T04:45:32.229Z,68.94
2019-03-27T04:47:58.809Z,68.65
2019-03-27T04:50:25.401Z,69.03
2019-03-27T04:52:51.974Z,69.29
2019-03-27T04:55:21.807Z,69.04
2019-03-27T04:57:48.364Z,69.16
2019-03-27T05:00:15.785Z,69.12
2019-03-27T05:02:42.521Z,69.38
2019-03-27T05:05:09.604Z,69.24
2019-03-27T05:07:36.413Z,68.98
2019-03-27T05:10:04.807Z,69.25
2019-03-27T05:12:31.454Z,69.02
2019-03-27T05:14:58.110Z,68.12
2019-03-27T05:17:24.746Z,68.34
2019-03-27T05:19:51.338Z,68.72
2019-03-27T05:22:17.914Z,68.38
2019-03-27T05:24:44.521Z,68.16
2019-03-27T05:27:11.095Z,68.75
2019-03-27T05:29:37.755Z,68.79
2019-03-27T05:32:04.425Z,68.10
2019-03-27T05:34:31.097Z,67.60
2019-03-27T05:36:57.802Z,68.07
2019-03-27T05:39:24.548Z,68.51
2019-03-27T05:41:52.587Z,68.46
2019-03-27T05:44:19.169Z,68.10
2019-03-27T05:46:45.773Z,67.87
2019-03-27T05:49:12.571Z,67.15
2019-03-27T05:51:39.247Z,67.74
2019-03-27T05:54:05.829Z,68.26
2019-03-27T05:56:32.489Z,67.76
2019-03-27T05:58:59.075Z,67.05
2019-03-27T06:01:25.661Z,67.26
2019-03-27T06:03:52.281Z,67.08
2019-03-27T06:06:18.875Z,66.60
2019-03-27T06:08:45.634Z,66.64
2019-03-27T06:11:12.399Z,66.09
2019-03-27T06:13:39.147Z,66.67
2019-03-27T06:16:06.079Z,65.89
2019-03-27T06:18:32.933Z,66.14
2019-03-27T06:20:59.552Z,66.26
2019-03-27T06:23:26.418Z,66.26
2019-03-27T06:25:53.034Z,66.31
2019-03-27T06:28:19.685Z,65.56
2019-03-27T06:30:46.279Z,65.65
2019-03-27T06:33:12.902Z,65.54
2019-03-27T06:35:39.599Z,64.60
2019-03-27T06:38:06.327Z,64.51
2019-03-27T06:40:33.019Z,65.33
2019-03-27T06:42:59.851Z,64.36
2019-03-27T06:45:26.526Z,63.45
2019-03-27T06:47:53.182Z,63.79
2019-03-27T06:50:19.948Z,62.67
2019-03-27T06:52:46.642Z,62.26
2019-03-27T06:55:13.521Z,63.31
2019-03-27T06:57:40.112Z,62.09
2019-03-27T07:00:08.710Z,62.46
2019-03-27T07:02:35.469Z,61.16
2019-03-27T07:05:03.654Z,60.54
2019-03-27T07:07:30.785Z,60.60
2019-03-27T07:09:57.539Z,61.13
2019-03-27T07:12:24.457Z,60.92
2019-03-27T07:14:51.118Z,61.01
2019-03-27T07:17:17.824Z,60.37
2019-03-27T07:19:44.378Z,60.31
2019-03-27T07:22:11.002Z,59.98
2019-03-27T07:24:37.752Z,59.50
2019-03-27T07:27:04.334Z,58.87
2019-03-27T07:29:31.068Z,59.58
2019-03-27T07:31:57.776Z,59.24
2019-03-27T07:34:25.002Z,59.42
2019-03-27T07:36:51.618Z,58.35
2019-03-27T07:39:18.235Z,58.49
2019-03-27T07:41:45.045Z,58.44
2019-03-27T07:44:11.777Z,59.04
2019-03-27T07:46:38.324Z,58.37
2019-03-27T07:49:05.990Z,58.52
2019-03-27T07:51:32.828Z,58.09
2019-03-27T07:53:59.618Z,57.17
2019-03-27T07:57:22.944Z,57.65
2019-03-27T07:59:49.567Z,57.18
2019-03-27T08:02:16.318Z,58.49
2019-03-27T08:04:42.887Z,57.86
2019-03-27T08:07:09.539Z,57.80
2019-03-27T08:09:36.160Z,56.76
2019-03-27T08:12:03.338Z,57.11
2019-03-27T08:14:30.290Z,54.89
2019-03-27T08:16:57.127Z,55.11
2019-03-27T08:19:23.706Z,54.35
2019-03-27T08:21:50.396Z,53.61
2019-03-27T08:24:16.987Z,53.99
2019-03-27T08:26:43.738Z,53.77
2019-03-27T08:29:10.442Z,53.34
2019-03-27T08:31:37.333Z,53.25
2019-03-27T08:34:04.183Z,52.76
2019-03-27T08:36:30.945Z,52.83
2019-03-27T08:38:57.589Z,51.09
2019-03-27T08:41:24.202Z,50.16
2019-03-27T08:43:50.861Z,50.53
2019-03-27T08:46:17.725Z,48.49
2019-03-27T08:48:44.315Z,48.68
2019-03-27T08:51:10.872Z,48.41
2019-03-27T08:53:37.735Z,47.69
2019-03-27T08:56:04.334Z,47.56
2019-03-27T08:58:31.044Z,47.82
2019-03-27T09:00:57.786Z,48.10
2019-03-27T09:03:24.619Z,47.37
2019-03-27T09:05:51.355Z,47.53
2019-03-27T09:08:18.234Z,46.86
2019-03-27T09:10:45.200Z,47.50
2019-03-27T09:13:11.817Z,44.97
2019-03-27T09:15:38.593Z,44.79
2019-03-27T09:18:05.573Z,46.02
2019-03-27T09:20:32.488Z,45.78
2019-03-27T09:22:59.157Z,45.02
2019-03-27T09:25:26.027Z,45.23
2019-03-27T09:27:52.686Z,45.87
2019-03-27T09:30:20.489Z,46.59
2019-03-27T09:32:47.217Z,44.57
2019-03-27T09:35:14.318Z,44.14
2019-03-27T09:37:40.988Z,45.21
2019-03-27T09:40:09.047Z,43.27
2019-03-27T09:42:35.741Z,44.08
2019-03-27T09:45:06.680Z,45.34
2019-03-27T09:47:34.769Z,46.08
2019-03-27T09:50:04.813Z,46.12
2019-03-27T09:52:31.628Z,46.22
2019-03-27T09:54:58.200Z,45.39
2019-03-27T09:57:27.883Z,45.89
2019-03-27T09:59:54.709Z,45.82
2019-03-27T10:02:21.976Z,45.93
2019-03-27T10:04:48.740Z,45.08
2019-03-27T10:07:15.474Z,44.90
2019-03-27T10:09:43.103Z,43.97
2019-03-27T10:12:09.747Z,44.80
2019-03-27T10:14:39.187Z,43.54
2019-03-27T10:17:05.783Z,44.03
2019-03-27T10:19:32.475Z,45.43
2019-03-27T10:22:00.509Z,45.08
2019-03-27T10:24:27.135Z,45.63
2019-03-27T10:26:53.904Z,44.50
2019-03-27T10:29:20.534Z,43.57
2019-03-27T10:31:47.183Z,43.01
2019-03-27T10:34:13.806Z,43.61
2019-03-27T10:36:40.897Z,42.16
2019-03-27T10:39:07.825Z,40.90
2019-03-27T10:41:34.894Z,40.00
2019-03-27T10:44:01.710Z,39.12
2019-03-27T10:46:28.265Z,41.28
2019-03-27T10:48:54.886Z,40.07
2019-03-27T10:51:21.596Z,39.30
2019-03-27T10:53:48.167Z,39.90
2019-03-27T10:56:14.834Z,38.33
2019-03-27T10:58:41.666Z,38.15
2019-03-27T11:01:08.379Z,39.31
2019-03-27T11:03:35.162Z,39.47
2019-03-27T11:06:03.230Z,37.82
2019-03-27T11:08:29.824Z,37.41
2019-03-27T11:10:56.418Z,37.28
2019-03-27T11:13:23.128Z,38.66
2019-03-27T11:15:49.745Z,36.60
2019-03-27T11:18:16.522Z,36.75
2019-03-27T11:20:43.076Z,37.09
2019-03-27T11:23:09.877Z,36.19
2019-03-27T11:25:36.688Z,36.59
2019-03-27T11:28:03.287Z,36.25
2019-03-27T11:30:34.672Z,35.72
2019-03-27T11:33:01.331Z,36.28
2019-03-27T11:35:27.924Z,36.34
2019-03-27T11:37:54.651Z,36.56
2019-03-27T11:40:21.243Z,37.44
2019-03-27T11:42:47.880Z,37.19
2019-03-27T11:45:14.666Z,36.38
2019-03-27T11:47:41.269Z,35.63
2019-03-27T11:50:09.379Z,34.27
2019-03-27T11:52:36.296Z,35.44
2019-03-27T11:55:04.552Z,33.39
2019-03-27T11:57:31.095Z,34.25
2019-03-27T11:59:57.757Z,34.86
2019-03-27T12:02:24.391Z,35.83
2019-03-27T12:04:50.946Z,35.16
2019-03-27T12:07:17.637Z,35.72
2019-03-27T12:09:44.291Z,35.56
2019-03-27T12:12:11.054Z,34.60
2019-03-27T12:14:37.618Z,35.26
2019-03-27T12:17:04.201Z,35.56
2019-03-27T12:19:31.028Z,36.37
2019-03-27T12:21:57.661Z,35.79
2019-03-27T12:24:24.287Z,35.98
2019-03-27T12:26:51.015Z,36.17
2019-03-27T12:29:18.271Z,36.55
2019-03-27T12:31:45.272Z,36.34
2019-03-27T12:34:12.044Z,35.85
2019-03-27T12:36:38.593Z,35.65
2019-03-27T12:39:06.339Z,36.15
2019-03-27T12:41:33.409Z,35.38
2019-03-27T12:44:02.557Z,36.06
2019-03-27T12:46:28.788Z,35.78
2019-03-27T12:48:55.420Z,35.55
2019-03-27T12:51:22.092Z,35.54
2019-03-27T12:53:48.730Z,35.49
2019-03-27T12:56:18.421Z,34.79
2019-03-27T12:58:45.050Z,35.02
2019-03-27T13:01:11.932Z,35.24
2019-03-27T13:03:38.590Z,34.34
2019-03-27T13:06:06.082Z,33.89
2019-03-27T13:08:32.978Z,33.23
2019-03-27T13:11:00.216Z,33.44
2019-03-27T13:13:27.081Z,33.80
2019-03-27T13:15:53.740Z,34.19
2019-03-27T13:18:20.462Z,33.69
2019-03-27T13:20:47.268Z,32.98
2019-03-27T13:23:15.024Z,33.05
2019-03-27T13:25:41.708Z,32.92
2019-03-27T13:28:08.429Z,32.80
2019-03-27T13:30:35.022Z,32.55
2019-03-27T13:33:01.826Z,32.22
2019-03-27T13:35:29.333Z,31.60
2019-03-27T13:37:56.078Z,32.06
2019-03-27T13:40:22.954Z,32.04
2019-03-27T13:42:49.824Z,32.03
2019-03-27T13:45:18.388Z,32.21
2019-03-27T13:47:45.437Z,32.26
2019-03-27T13:50:16.534Z,31.77
2019-03-27T13:52:43.281Z,32.17
2019-03-27T13:55:11.126Z,32.79
2019-03-27T13:57:37.830Z,32.45
2019-03-27T14:00:10.534Z,31.23
2019-03-27T14:02:37.534Z,31.66
2019-03-27T14:05:05.309Z,30.43
2019-03-27T14:07:31.891Z,31.22
2019-03-27T14:09:59.867Z,30.76
2019-03-27T14:12:26.469Z,31.25
2019-03-27T14:14:53.094Z,30.92
2019-03-27T14:17:19.937Z,30.80
2019-03-27T14:19:46.634Z,31.22
2019-03-27T14:22:13.196Z,29.56
2019-03-27T14:24:39.890Z,30.67
2019-03-27T14:27:06.627Z,30.34
2019-03-27T14:29:33.436Z,29.97
2019-03-27T14:32:01.436Z,30.35
2019-03-27T14:34:28.194Z,30.23
2019-03-27T14:36:56.050Z,30.33
2019-03-27T14:39:22.934Z,29.53
2019-03-27T14:41:49.553Z,29.75
2019-03-27T14:44:16.317Z,30.37
2019-03-27T14:46:43.081Z,30.31
2019-03-27T14:49:09.782Z,29.81
2019-03-27T14:51:36.375Z,30.39
2019-03-27T14:54:03.259Z,30.47
2019-03-27T14:56:29.925Z,30.00
2019-03-27T14:58:56.485Z,30.29
2019-03-27T15:01:23.285Z,30.80
2019-03-27T15:03:49.951Z,30.56
2019-03-27T15:06:16.816Z,31.00
2019-03-27T15:08:43.454Z,31.28
2019-03-27T15:11:10.101Z,30.76
2019-03-27T15:13:38.211Z,30.94
2019-03-27T15:16:04.873Z,31.15
2019-03-27T15:18:31.652Z,32.20
2019-03-27T15:20:58.301Z,32.62
2019-03-27T15:23:25.105Z,33.54
2019-03-27T15:25:51.766Z,33.18
2019-03-27T15:28:18.306Z,33.25
2019-03-27T15:30:44.920Z,33.94
2019-03-27T15:33:11.759Z,34.02
2019-03-27T15:35:38.453Z,34.48
2019-03-27T15:38:05.376Z,35.30
2019-03-27T15:40:36.641Z,35.58
2019-03-27T15:43:03.400Z,35.31
2019-03-27T15:45:30.122Z,36.14
2019-03-27T15:47:56.776Z,36.41
2019-03-27T15:50:23.399Z,36.11
2019-03-27T15:52:50.072Z,36.51
2019-03-27T15:55:16.787Z,37.15
2019-03-27T15:57:43.492Z,37.20
2019-03-27T16:00:11.504Z,37.46
2019-03-27T16:02:38.273Z,37.81
2019-03-27T16:05:05.296Z,37.88
2019-03-27T16:07:32.202Z,37.78
2019-03-27T16:09:58.841Z,38.48
2019-03-27T16:12:25.541Z,38.34
2019-03-27T16:14:52.192Z,38.51
2019-03-27T16:17:18.798Z,39.08
2019-03-27T16:19:45.476Z,38.90
2019-03-27T16:22:13.139Z,39.51
2019-03-27T16:24:39.698Z,39.10
2019-03-27T16:27:06.414Z,39.37
2019-03-27T16:29:33.176Z,39.44
2019-03-27T16:31:59.912Z,39.13
2019-03-27T16:34:26.560Z,39.71
2019-03-27T16:36:54.303Z,39.61
2019-03-27T16:39:21.271Z,39.94
2019-03-27T16:41:48.030Z,40.01
2019-03-27T16:44:14.615Z,40.38
2019-03-27T16:46:41.282Z,40.61
2019-03-27T16:49:07.886Z,40.36
2019-03-27T16:51:34.736Z,40.13
2019-03-27T16:54:01.344Z,40.31
2019-03-27T16:56:28.174Z,40.39
2019-03-27T16:58:54.771Z,40.69
2019-03-27T17:01:21.497Z,40.40
2019-03-27T17:03:50.830Z,40.87
2019-03-27T17:06:17.537Z,40.85
2019-03-27T17:08:44.134Z,40.66
2019-03-27T17:11:10.909Z,41.26
2019-03-27T17:13:37.485Z,40.85
2019-03-27T17:16:04.257Z,40.65
2019-03-27T17:18:30.898Z,40.82
2019-03-27T17:20:57.495Z,40.49
2019-03-27T17:23:24.251Z,40.75
2019-03-27T17:25:50.819Z,40.62
2019-03-27T17:28:17.790Z,41.15
2019-03-27T17:30:44.816Z,41.32
2019-03-27T17:33:11.445Z,41.54
2019-03-27T17:35:38.160Z,41.34
2019-03-27T17:38:05.039Z,41.44
2019-03-27T17:40:31.720Z,41.41
2019-03-27T17:42:59.019Z,41.52
2019-03-27T17:45:25.725Z,41.78
2019-03-27T17:47:52.360Z,41.34
2019-03-27T17:50:19.077Z,41.36
2019-03-27T17:52:45.654Z,41.59
2019-03-27T17:55:12.907Z,41.83
2019-03-27T17:57:39.622Z,41.62
2019-03-27T18:00:12.368Z,41.73
2019-03-27T18:02:39.039Z,41.80
2019-03-27T18:05:06.186Z,41.62
2019-03-27T18:07:33.136Z,41.46
2019-03-27T18:10:03.543Z,41.64
2019-03-27T18:12:30.478Z,41.71
2019-03-27T18:14:57.257Z,41.62
2019-03-27T18:17:24.312Z,41.52
2019-03-27T18:19:50.979Z,41.46
2019-03-27T18:22:18.993Z,41.72
2019-03-27T18:24:48.717Z,41.64
2019-03-27T18:27:15.589Z,41.22
2019-03-27T18:29:43.372Z,41.04
2019-03-27T18:32:10.077Z,41.18
2019-03-27T18:34:36.685Z,41.61
2019-03-27T18:37:03.384Z,41.41
2019-03-27T18:39:29.963Z,40.93
2019-03-27T18:41:56.645Z,40.95
2019-03-27T18:44:23.365Z,41.57
2019-03-27T18:46:50.356Z,41.47
2019-03-27T18:49:16.993Z,41.17
2019-03-27T18:51:43.587Z,41.24
2019-03-27T18:54:10.376Z,41.52
2019-03-27T18:56:36.961Z,41.37
2019-03-27T18:59:03.619Z,41.54
2019-03-27T19:01:30.375Z,41.33
2019-03-27T19:03:56.932Z,41.57
2019-03-27T19:06:23.500Z,41.47
2019-03-27T19:08:50.094Z,41.43
2019-03-27T19:11:16.862Z,41.50
2019-03-27T19:13:43.647Z,41.54
2019-03-27T19:16:10.245Z,41.26
2019-03-27T19:18:37.070Z,41.32
2019-03-27T19:21:03.996Z,41.34
2019-03-27T19:23:30.665Z,41.31
2019-03-27T19:25:58.681Z,41.67
2019-03-27T19:28:25.259Z,41.54
2019-03-27T19:30:51.976Z,41.71
2019-03-27T19:33:18.565Z,41.75
2019-03-27T19:35:45.136Z,41.45
2019-03-27T19:38:11.998Z,42.18
2019-03-27T19:40:38.788Z,42.67
2019-03-27T19:43:05.326Z,42.17
2019-03-27T19:45:32.088Z,42.56
2019-03-27T19:47:58.737Z,42.47
2019-03-27T19:50:25.429Z,42.73
2019-03-27T19:52:52.253Z,42.99
2019-03-27T19:55:19.048Z,43.03
2019-03-27T19:57:45.860Z,42.73
2019-03-27T20:00:13.965Z,42.71
2019-03-27T20:02:40.866Z,42.77
2019-03-27T20:05:08.010Z,43.49
2019-03-27T20:07:36.133Z,43.91
2019-03-27T20:10:06.234Z,44.04
2019-03-27T20:12:33.110Z,44.13
2019-03-27T20:15:11.198Z,44.03
2019-03-27T20:17:29.404Z,43.74
2019-03-27T20:19:56.065Z,44.12
2019-03-27T20:22:22.670Z,44.02
2019-03-27T20:24:49.341Z,43.91
2019-03-27T20:27:17.339Z,44.76
2019-03-27T20:29:46.439Z,45.38
2019-03-27T20:32:12.547Z,45.23
2019-03-27T20:34:39.156Z,45.83
2019-03-27T20:37:05.953Z,46.56
2019-03-27T20:39:32.916Z,46.66
2019-03-27T20:41:59.672Z,46.79
2019-03-27T20:44:26.250Z,47.33
2019-03-27T20:46:53.244Z,47.75
2019-03-27T20:49:20.044Z,48.28
2019-03-27T20:51:48.488Z,48.53
2019-03-27T20:54:15.158Z,48.21
2019-03-27T20:56:42.008Z,48.64
2019-03-27T20:59:08.816Z,49.25
2019-03-27T21:01:35.792Z,49.33
2019-03-27T21:04:02.607Z,50.53
2019-03-27T21:06:30.460Z,50.39
2019-03-27T21:09:00.416Z,50.86
2019-03-27T21:11:27.066Z,50.66
2019-03-27T21:13:53.655Z,51.40
2019-03-27T21:16:20.281Z,51.70
2019-03-27T21:18:46.860Z,51.60
2019-03-27T21:21:14.024Z,52.23
2019-03-27T21:23:40.771Z,52.17
2019-03-27T21:26:09.660Z,52.25
2019-03-27T21:28:35.815Z,52.36
2019-03-27T21:31:02.513Z,52.64
2019-03-27T21:33:29.059Z,52.78
2019-03-27T21:35:55.620Z,53.45
2019-03-27T21:38:22.205Z,53.82
2019-03-27T21:40:48.988Z,54.25
2019-03-27T21:43:15.574Z,54.82
2019-03-27T21:45:42.142Z,54.55
2019-03-27T21:48:09.991Z,54.70
2019-03-27T21:50:37.184Z,54.62
2019-03-27T21:53:04.015Z,55.20
2019-03-27T21:55:42.281Z,55.52
2019-03-27T21:58:00.989Z,56.23
2019-03-27T22:00:33.366Z,56.66
2019-03-27T22:02:59.955Z,55.82
2019-03-27T22:05:26.725Z,55.91
2019-03-27T22:07:53.341Z,55.46
2019-03-27T22:10:19.912Z,55.74
2019-03-27T22:12:46.610Z,54.95
2019-03-27T22:15:13.375Z,55.72
2019-03-27T22:17:40.031Z,55.35
2019-03-27T22:20:07.016Z,55.12
2019-03-27T22:22:34.076Z,55.62
2019-03-27T22:25:01.038Z,55.96
2019-03-27T22:27:27.618Z,56.22
2019-03-27T22:29:54.210Z,57.31
2019-03-27T22:32:20.993Z,57.00
2019-03-27T22:34:47.882Z,56.85
2019-03-27T22:37:14.658Z,57.81
2019-03-27T22:39:41.391Z,56.99
2019-03-27T22:42:07.999Z,57.56
2019-03-27T22:44:34.683Z,58.09
2019-03-27T22:47:01.242Z,59.23
2019-03-27T22:49:28.322Z,58.17
2019-03-27T22:51:55.053Z,59.02
2019-03-27T22:54:21.695Z,58.28
2019-03-27T22:56:48.531Z,58.89
2019-03-27T22:59:16.320Z,58.54
2019-03-27T23:01:45.346Z,58.60
2019-03-27T23:04:12.306Z,58.79
2019-03-27T23:06:39.144Z,59.51
2019-03-27T23:09:06.008Z,58.91
2019-03-27T23:11:34.877Z,59.67
2019-03-27T23:14:01.431Z,59.28
2019-03-27T23:16:28.207Z,59.90
2019-03-27T23:18:54.849Z,59.89
2019-03-27T23:21:21.550Z,60.55
2019-03-27T23:23:48.112Z,60.08
2019-03-27T23:26:14.992Z,60.32
2019-03-27T23:28:41.678Z,61.71
2019-03-27T23:31:08.439Z,62.76
2019-03-27T23:33:35.210Z,64.37
2019-03-27T23:36:01.919Z,63.95
2019-03-27T23:38:28.568Z,64.49
2019-03-27T23:40:55.132Z,64.21
2019-03-27T23:43:21.822Z,65.81
2019-03-27T23:45:48.435Z,64.34
2019-03-27T23:48:15.234Z,65.40
2019-03-27T23:50:42.053Z,66.05
2019-03-27T23:53:08.837Z,65.72
2019-03-27T23:55:35.427Z,65.99
2019-03-27T23:58:02.873Z,65.59
